createdAt,value
2018-06-03T00:00:40.966Z,17.48
2018-06-03T00:01:40.973Z,17.48
2018-06-03T00:02:40.971Z,17.49
2018-06-03T00:03:40.963Z,17.41
2018-06-03T00:04:40.979Z,17.43
2018-06-03T00:05:40.947Z,17.38
2018-06-03T00:06:40.947Z,17.54
2018-06-03T00:07:40.921Z,17.51
2018-06-03T00:08:40.912Z,17.48
2018-06-03T00:09:40.985Z,17.49
2018-06-03T00:10:40.928Z,17.46
2018-06-03T00:11:40.920Z,17.49
2018-06-03T00:12:40.874Z,17.43
2018-06-03T00:13:40.863Z,17.55
2018-06-03T00:14:40.860Z,17.59
2018-06-03T00:15:40.850Z,17.58
2018-06-03T00:16:40.859Z,17.49
2018-06-03T00:17:40.842Z,17.51
2018-06-03T00:18:40.827Z,17.54
2018-06-03T00:19:40.825Z,17.55
2018-06-03T00:20:40.809Z,17.56
2018-06-03T00:21:40.813Z,17.48
2018-06-03T00:22:40.821Z,17.54
2018-06-03T00:23:40.823Z,17.56
2018-06-03T00:24:40.776Z,17.58
2018-06-03T00:25:40.770Z,17.48
2018-06-03T00:26:40.763Z,17.49
2018-06-03T00:27:40.790Z,17.58
2018-06-03T00:28:40.744Z,17.52
2018-06-03T00:29:40.728Z,17.52
2018-06-03T00:30:40.708Z,17.41
2018-06-03T00:31:40.716Z,17.38
2018-06-03T00:32:40.747Z,17.41
2018-06-03T00:33:40.703Z,17.44
2018-06-03T00:34:40.693Z,17.33
2018-06-03T00:35:40.675Z,17.25
2018-06-03T00:36:40.679Z,17.30
2018-06-03T00:37:40.693Z,17.33
2018-06-03T00:38:40.660Z,17.40
2018-06-03T00:39:40.678Z,17.26
2018-06-03T00:40:40.636Z,17.22
2018-06-03T00:41:40.635Z,17.07
2018-06-03T00:42:40.618Z,17.14
2018-06-03T00:43:40.619Z,17.07
2018-06-03T00:44:40.648Z,17.00
2018-06-03T00:45:40.599Z,16.89
2018-06-03T00:46:40.597Z,16.82
2018-06-03T00:47:40.574Z,16.75
2018-06-03T00:48:40.574Z,16.78
2018-06-03T00:49:40.740Z,16.79
2018-06-03T00:50:40.545Z,16.83
2018-06-03T00:51:40.545Z,16.81
2018-06-03T00:52:40.564Z,17.00
2018-06-03T00:53:40.519Z,17.01
2018-06-03T00:54:40.561Z,16.91
2018-06-03T00:55:40.547Z,17.04
2018-06-03T00:56:40.512Z,17.01
2018-06-03T00:57:40.507Z,17.07
2018-06-03T00:58:40.733Z,17.03
2018-06-03T00:59:40.478Z,17.04
2018-06-03T01:00:40.468Z,17.03
2018-06-03T01:01:40.474Z,17.08
2018-06-03T01:02:40.449Z,17.11
2018-06-03T01:03:40.444Z,17.11
2018-06-03T01:04:40.793Z,17.14
2018-06-03T01:05:40.433Z,17.04
2018-06-03T01:06:40.412Z,17.06
2018-06-03T01:07:40.413Z,17.04
2018-06-03T01:08:40.413Z,17.06
2018-06-03T01:09:40.401Z,17.07
2018-06-03T01:10:40.391Z,17.14
2018-06-03T01:11:40.362Z,17.12
2018-06-03T01:12:40.361Z,17.15
2018-06-03T01:13:40.363Z,17.15
2018-06-03T01:14:40.341Z,17.21
2018-06-03T01:15:40.404Z,17.14
2018-06-03T01:16:40.330Z,17.03
2018-06-03T01:17:40.329Z,17.06
2018-06-03T01:18:40.312Z,17.08
2018-06-03T01:19:40.307Z,17.00
2018-06-03T01:20:40.291Z,16.98
2018-06-03T01:21:40.339Z,17.00
2018-06-03T01:22:40.282Z,16.94
2018-06-03T01:23:40.270Z,16.93
2018-06-03T01:24:40.266Z,16.83
2018-06-03T01:25:40.240Z,16.88
2018-06-03T01:26:40.277Z,16.71
2018-06-03T01:27:40.228Z,16.73
2018-06-03T01:28:40.259Z,16.75
2018-06-03T01:29:40.258Z,16.83
2018-06-03T01:30:40.199Z,16.94
2018-06-03T01:31:40.202Z,16.93
2018-06-03T01:32:40.185Z,16.93
2018-06-03T01:33:40.238Z,16.93
2018-06-03T01:34:40.169Z,16.98
2018-06-03T01:35:40.157Z,17.04
2018-06-03T01:36:40.163Z,17.06
2018-06-03T01:37:40.146Z,17.12
2018-06-03T01:38:40.141Z,17.07
2018-06-03T01:39:40.127Z,17.04
2018-06-03T01:40:40.123Z,17.01
2018-06-03T01:41:40.114Z,17.07
2018-06-03T01:42:40.095Z,17.07
2018-06-03T01:43:40.098Z,17.07
2018-06-03T01:44:40.204Z,17.08
2018-06-03T01:45:40.066Z,17.07
2018-06-03T01:46:40.101Z,17.04
2018-06-03T01:47:40.064Z,17.01
2018-06-03T01:48:40.045Z,16.97
2018-06-03T01:49:40.031Z,17.06
2018-06-03T01:50:40.061Z,17.06
2018-06-03T01:51:40.020Z,17.03
2018-06-03T01:52:40.014Z,17.07
2018-06-03T01:53:40.005Z,17.16
2018-06-03T01:54:40.061Z,17.08
2018-06-03T01:55:39.984Z,17.18
2018-06-03T01:56:39.973Z,17.22
2018-06-03T01:57:39.994Z,17.15
2018-06-03T01:58:39.960Z,17.11
2018-06-03T01:59:39.954Z,17.16
2018-06-03T02:00:39.999Z,17.26
2018-06-03T02:01:39.929Z,17.12
2018-06-03T02:02:39.945Z,17.21
2018-06-03T02:03:39.927Z,17.07
2018-06-03T02:04:39.903Z,17.07
2018-06-03T02:05:39.917Z,17.18
2018-06-03T02:06:39.976Z,17.14
2018-06-03T02:07:40.088Z,17.15
2018-06-03T02:08:39.869Z,17.21
2018-06-03T02:09:39.865Z,17.18
2018-06-03T02:10:39.861Z,17.25
2018-06-03T02:11:39.890Z,17.30
2018-06-03T02:12:39.863Z,17.31
2018-06-03T02:13:39.831Z,17.26
2018-06-03T02:14:39.823Z,17.26
2018-06-03T02:15:40.739Z,17.31
2018-06-03T02:16:39.816Z,17.25
2018-06-03T02:17:39.789Z,17.26
2018-06-03T02:18:39.773Z,17.26
2018-06-03T02:19:39.779Z,17.25
2018-06-03T02:20:39.761Z,17.16
2018-06-03T02:21:39.780Z,17.19
2018-06-03T02:22:39.779Z,17.15
2018-06-03T02:23:40.102Z,17.03
2018-06-03T02:24:39.767Z,17.03
2018-06-03T02:25:39.717Z,16.96
2018-06-03T02:26:39.715Z,17.03
2018-06-03T02:27:39.758Z,17.01
2018-06-03T02:28:39.701Z,17.01
2018-06-03T02:29:39.725Z,17.16
2018-06-03T02:30:39.698Z,17.15
2018-06-03T02:31:39.682Z,17.11
2018-06-03T02:32:39.655Z,17.06
2018-06-03T02:33:39.656Z,17.11
2018-06-03T02:34:39.675Z,17.12
2018-06-03T02:35:39.635Z,17.19
2018-06-03T02:36:39.624Z,17.14
2018-06-03T02:37:39.628Z,17.18
2018-06-03T02:38:39.602Z,17.22
2018-06-03T02:39:39.630Z,17.16
2018-06-03T02:40:39.600Z,17.15
2018-06-03T02:41:39.593Z,17.18
2018-06-03T02:42:39.584Z,17.14
2018-06-03T02:43:39.574Z,17.15
2018-06-03T02:44:39.615Z,17.07
2018-06-03T02:45:39.555Z,17.01
2018-06-03T02:46:39.543Z,17.03
2018-06-03T02:47:39.534Z,16.94
2018-06-03T02:48:39.535Z,16.98
2018-06-03T02:49:40.260Z,17.00
2018-06-03T02:50:40.337Z,16.97
2018-06-03T02:51:39.500Z,16.82
2018-06-03T02:52:39.510Z,16.96
2018-06-03T02:53:39.527Z,17.00
2018-06-03T02:54:39.517Z,16.89
2018-06-03T02:55:39.810Z,16.88
2018-06-03T02:56:39.501Z,16.82
2018-06-03T02:57:39.451Z,16.82
2018-06-03T02:58:39.443Z,16.93
2018-06-03T02:59:39.458Z,16.93
2018-06-03T03:00:39.610Z,16.93
2018-06-03T03:01:39.440Z,16.85
2018-06-03T03:02:39.413Z,16.85
2018-06-03T03:03:39.408Z,16.96
2018-06-03T03:04:39.385Z,16.83
2018-06-03T03:05:39.408Z,16.86
2018-06-03T03:06:39.413Z,16.93
2018-06-03T03:07:39.348Z,16.81
2018-06-03T03:08:39.370Z,16.76
2018-06-03T03:09:39.355Z,16.85
2018-06-03T03:10:41.337Z,16.94
2018-06-03T03:11:40.341Z,16.86
2018-06-03T03:12:39.329Z,16.86
2018-06-03T03:13:39.348Z,16.88
2018-06-03T03:14:39.358Z,17.01
2018-06-03T03:15:39.293Z,16.97
2018-06-03T03:16:39.296Z,16.96
2018-06-03T03:17:39.284Z,16.96
2018-06-03T03:18:40.265Z,16.96
2018-06-03T03:19:39.348Z,16.93
2018-06-03T03:20:40.773Z,17.01
2018-06-03T03:21:39.804Z,17.06
2018-06-03T03:22:39.295Z,17.04
2018-06-03T03:23:39.827Z,16.94
2018-06-03T03:24:39.774Z,16.96
2018-06-03T03:25:39.201Z,16.94
2018-06-03T03:26:39.767Z,16.85
2018-06-03T03:27:39.187Z,16.78
2018-06-03T03:28:39.204Z,16.71
2018-06-03T03:29:39.761Z,16.71
2018-06-03T03:30:39.181Z,16.67
2018-06-03T04:32:46.560Z,16.66
2018-06-03T04:33:46.538Z,16.70
2018-06-03T04:34:46.528Z,16.71
2018-06-03T04:35:46.729Z,16.70
2018-06-03T04:36:46.500Z,16.73
2018-06-03T04:37:46.498Z,16.86
2018-06-03T04:38:46.474Z,16.81
2018-06-03T04:39:46.473Z,16.83
2018-06-03T04:40:46.506Z,16.88
2018-06-03T04:41:46.485Z,16.85
2018-06-03T04:42:46.449Z,16.82
2018-06-03T04:43:46.426Z,16.93
2018-06-03T04:44:46.419Z,16.83
2018-06-03T04:45:46.410Z,16.89
2018-06-03T04:46:46.761Z,16.94
2018-06-03T04:47:46.390Z,16.83
2018-06-03T04:48:46.410Z,16.91
2018-06-03T04:49:46.376Z,16.93
2018-06-03T04:50:46.369Z,16.94
2018-06-03T04:51:46.356Z,16.88
2018-06-03T04:52:46.489Z,16.94
2018-06-03T04:53:46.337Z,16.98
2018-06-03T04:54:46.329Z,17.03
2018-06-03T04:55:46.319Z,17.06
2018-06-03T04:56:46.307Z,17.08
2018-06-03T04:57:46.304Z,17.08
2018-06-03T04:58:46.742Z,17.11
2018-06-03T04:59:46.272Z,17.08
2018-06-03T05:00:46.286Z,17.14
2018-06-03T05:01:46.267Z,17.14
2018-06-03T05:02:46.263Z,17.18
2018-06-03T05:03:46.245Z,17.12
2018-06-03T05:04:46.324Z,17.15
2018-06-03T05:05:46.231Z,17.18
2018-06-03T05:06:46.221Z,17.19
2018-06-03T05:07:46.207Z,17.21
2018-06-03T05:08:46.191Z,17.14
2018-06-03T05:09:46.186Z,17.19
2018-06-03T05:10:46.194Z,17.23
2018-06-03T05:11:46.171Z,17.30
2018-06-03T05:12:46.170Z,17.22
2018-06-03T05:13:46.149Z,17.23
2018-06-03T05:14:46.184Z,17.25
2018-06-03T05:15:46.146Z,17.23
2018-06-03T05:16:46.150Z,17.28
2018-06-03T05:17:46.133Z,17.33
2018-06-03T05:18:46.112Z,17.25
2018-06-03T05:19:46.100Z,17.31
2018-06-03T05:20:46.097Z,17.36
2018-06-03T05:21:46.122Z,17.41
2018-06-03T05:22:46.091Z,17.44
2018-06-03T05:23:46.077Z,17.44
2018-06-03T05:24:46.063Z,17.51
2018-06-03T05:25:46.051Z,17.33
2018-06-03T05:26:46.077Z,17.30
2018-06-03T05:27:46.058Z,17.46
2018-06-03T05:28:46.031Z,17.49
2018-06-03T05:29:46.054Z,17.43
2018-06-03T05:30:46.014Z,17.41
2018-06-03T05:31:45.993Z,17.43
2018-06-03T05:32:45.995Z,17.49
2018-06-03T05:33:46.134Z,17.52
2018-06-03T05:34:45.973Z,17.46
2018-06-03T05:35:45.967Z,17.51
2018-06-03T05:36:45.952Z,17.48
2018-06-03T05:37:45.961Z,17.44
2018-06-03T05:38:45.946Z,17.38
2018-06-03T05:39:46.091Z,17.38
2018-06-03T05:40:45.927Z,17.36
2018-06-03T05:41:45.914Z,17.51
2018-06-03T05:42:45.913Z,17.46
2018-06-03T05:43:45.903Z,17.37
2018-06-03T05:44:45.891Z,17.41
2018-06-03T05:45:45.893Z,17.43
2018-06-03T05:46:45.874Z,17.40
2018-06-03T05:47:45.865Z,17.54
2018-06-03T05:48:45.861Z,17.51
2018-06-03T05:49:45.850Z,17.41
2018-06-03T05:50:45.863Z,17.41
2018-06-03T05:51:45.832Z,17.46
2018-06-03T05:52:45.821Z,17.55
2018-06-03T05:53:45.820Z,17.51
2018-06-03T05:54:45.809Z,17.63
2018-06-03T05:55:45.803Z,17.58
2018-06-03T05:56:45.841Z,17.59
2018-06-03T05:57:45.785Z,17.62
2018-06-03T05:58:45.782Z,17.75
2018-06-03T05:59:45.759Z,17.79
2018-06-03T06:00:45.760Z,17.84
2018-06-03T06:01:45.754Z,17.86
2018-06-03T06:02:45.744Z,17.93
2018-06-03T06:03:45.727Z,17.92
2018-06-03T06:04:45.716Z,17.79
2018-06-03T06:05:45.717Z,17.93
2018-06-03T06:06:45.707Z,18.07
2018-06-03T06:07:45.711Z,17.97
2018-06-03T06:08:45.685Z,17.95
2018-06-03T06:09:45.687Z,18.00
2018-06-03T06:10:45.676Z,18.10
2018-06-03T06:11:45.662Z,18.11
2018-06-03T06:12:45.654Z,18.00
2018-06-03T06:13:45.653Z,18.14
2018-06-03T06:14:45.638Z,18.10
2018-06-03T06:15:45.847Z,18.00
2018-06-03T06:16:45.624Z,18.14
2018-06-03T06:17:45.619Z,18.18
2018-06-03T06:18:45.623Z,18.17
2018-06-03T06:19:45.609Z,18.17
2018-06-03T06:20:45.629Z,18.30
2018-06-03T06:21:45.586Z,18.26
2018-06-03T06:22:45.584Z,18.20
2018-06-03T06:23:45.563Z,18.33
2018-06-03T06:24:45.564Z,18.35
2018-06-03T06:25:45.585Z,18.30
2018-06-03T06:26:45.547Z,18.29
2018-06-03T06:27:45.533Z,18.37
2018-06-03T06:28:45.527Z,18.32
2018-06-03T06:29:45.519Z,18.39
2018-06-03T06:30:45.551Z,18.39
2018-06-03T06:31:45.505Z,18.37
2018-06-03T06:32:45.515Z,18.37
2018-06-03T06:33:45.495Z,18.47
2018-06-03T06:34:45.510Z,18.47
2018-06-03T06:35:45.472Z,18.47
2018-06-03T06:36:45.469Z,18.45
2018-06-03T06:37:45.475Z,18.36
2018-06-03T06:38:45.445Z,18.48
2018-06-03T06:39:45.441Z,18.45
2018-06-03T06:40:45.485Z,18.48
2018-06-03T06:41:45.432Z,18.45
2018-06-03T06:42:45.454Z,18.51
2018-06-03T06:43:45.454Z,18.63
2018-06-03T06:44:45.406Z,18.67
2018-06-03T06:45:45.405Z,18.70
2018-06-03T06:46:45.396Z,18.70
2018-06-03T06:47:45.392Z,18.70
2018-06-03T06:48:45.408Z,18.65
2018-06-03T06:49:45.373Z,18.52
2018-06-03T06:50:45.369Z,18.45
2018-06-03T06:51:45.371Z,18.51
2018-06-03T06:52:45.353Z,18.60
2018-06-03T06:53:45.348Z,18.50
2018-06-03T06:54:45.350Z,18.52
2018-06-03T06:55:45.326Z,18.69
2018-06-03T06:56:45.324Z,18.66
2018-06-03T06:57:45.334Z,18.65
2018-06-03T06:58:45.312Z,18.57
2018-06-03T06:59:45.310Z,18.50
2018-06-03T07:00:45.297Z,18.69
2018-06-03T07:01:45.299Z,18.55
2018-06-03T07:02:45.285Z,18.57
2018-06-03T07:03:45.271Z,18.60
2018-06-03T07:04:45.315Z,18.65
2018-06-03T07:05:45.278Z,18.76
2018-06-03T07:06:45.306Z,18.72
2018-06-03T07:07:45.248Z,18.73
2018-06-03T07:08:45.230Z,18.84
2018-06-03T07:09:47.263Z,18.81
2018-06-03T07:10:45.265Z,18.92
2018-06-03T07:11:45.217Z,18.98
2018-06-03T07:12:45.208Z,18.99
2018-06-03T07:13:45.196Z,18.91
2018-06-03T07:14:45.202Z,18.99
2018-06-03T07:15:45.224Z,19.06
2018-06-03T07:16:45.189Z,19.11
2018-06-03T07:17:45.193Z,19.11
2018-06-03T07:18:45.174Z,19.18
2018-06-03T07:19:45.160Z,19.19
2018-06-03T07:20:45.198Z,19.22
2018-06-03T07:21:45.149Z,19.11
2018-06-03T07:22:45.171Z,19.06
2018-06-03T07:23:45.138Z,18.95
2018-06-03T07:24:45.137Z,18.91
2018-06-03T07:25:45.181Z,18.87
2018-06-03T07:26:45.116Z,19.00
2018-06-03T07:27:45.111Z,18.91
2018-06-03T07:28:45.106Z,19.07
2018-06-03T07:29:45.097Z,19.10
2018-06-03T07:30:45.081Z,19.16
2018-06-03T07:31:45.075Z,19.19
2018-06-03T07:32:45.078Z,19.25
2018-06-03T07:33:45.068Z,19.23
2018-06-03T07:34:45.069Z,19.37
2018-06-03T07:35:45.082Z,19.40
2018-06-03T07:36:45.049Z,19.46
2018-06-03T07:37:45.036Z,19.46
2018-06-03T07:38:45.042Z,19.54
2018-06-03T07:39:45.032Z,19.54
2018-06-03T07:40:45.084Z,19.44
2018-06-03T07:41:45.016Z,19.47
2018-06-03T07:42:45.013Z,19.47
2018-06-03T07:43:44.999Z,19.43
2018-06-03T07:44:44.994Z,19.47
2018-06-03T07:45:44.991Z,19.51
2018-06-03T07:46:44.992Z,19.55
2018-06-03T07:47:45.243Z,19.63
2018-06-03T07:48:45.007Z,19.58
2018-06-03T07:49:44.964Z,19.62
2018-06-03T07:50:44.967Z,19.55
2018-06-03T07:51:44.955Z,19.65
2018-06-03T07:52:44.949Z,19.69
2018-06-03T07:53:44.967Z,19.76
2018-06-03T07:54:44.939Z,19.69
2018-06-03T07:55:44.922Z,19.69
2018-06-03T07:56:44.925Z,19.76
2018-06-03T07:57:44.920Z,19.74
2018-06-03T07:58:44.957Z,19.81
2018-06-03T07:59:44.894Z,19.76
2018-06-03T08:00:44.892Z,19.81
2018-06-03T08:01:44.885Z,19.77
2018-06-03T08:02:44.901Z,19.84
2018-06-03T08:03:44.866Z,19.80
2018-06-03T08:04:44.878Z,19.76
2018-06-03T08:05:44.861Z,19.80
2018-06-03T08:06:44.853Z,19.76
2018-06-03T08:07:44.852Z,19.81
2018-06-03T08:08:44.859Z,19.74
2018-06-03T08:09:44.840Z,19.78
2018-06-03T08:10:44.824Z,19.76
2018-06-03T08:11:44.826Z,19.74
2018-06-03T08:12:44.817Z,19.73
2018-06-03T08:13:44.820Z,19.69
2018-06-03T08:14:44.906Z,19.54
2018-06-03T08:15:44.799Z,19.54
2018-06-03T08:16:44.795Z,19.62
2018-06-03T08:17:44.799Z,19.63
2018-06-03T08:18:44.790Z,19.55
2018-06-03T08:19:44.772Z,19.62
2018-06-03T08:20:44.791Z,19.62
2018-06-03T08:21:44.760Z,19.59
2018-06-03T08:22:44.763Z,19.61
2018-06-03T08:23:44.743Z,19.66
2018-06-03T08:24:44.765Z,19.65
2018-06-03T08:25:44.724Z,19.66
2018-06-03T08:26:44.727Z,19.62
2018-06-03T08:27:44.724Z,19.68
2018-06-03T08:28:44.715Z,19.68
2018-06-03T08:29:44.870Z,19.66
2018-06-03T08:30:44.694Z,19.66
2018-06-03T08:31:44.690Z,19.73
2018-06-03T08:32:44.687Z,19.65
2018-06-03T08:33:44.683Z,19.65
2018-06-03T08:34:44.673Z,19.59
2018-06-03T08:35:44.691Z,19.71
2018-06-03T08:36:44.690Z,19.66
2018-06-03T08:37:44.654Z,19.62
2018-06-03T08:38:44.640Z,19.61
2018-06-03T08:39:44.645Z,19.54
2018-06-03T08:40:44.631Z,19.61
2018-06-03T08:41:44.658Z,19.59
2018-06-03T08:42:44.625Z,19.55
2018-06-03T08:43:44.607Z,19.55
2018-06-03T08:44:44.607Z,19.58
2018-06-03T08:45:44.608Z,19.59
2018-06-03T08:46:44.665Z,19.62
2018-06-03T08:47:44.581Z,19.56
2018-06-03T08:48:44.582Z,19.62
2018-06-03T08:49:44.573Z,19.58
2018-06-03T08:50:44.567Z,19.61
2018-06-03T08:51:44.562Z,19.54
2018-06-03T08:52:44.583Z,19.65
2018-06-03T08:53:44.541Z,19.59
2018-06-03T08:54:44.563Z,19.54
2018-06-03T08:55:44.529Z,19.63
2018-06-03T08:56:44.528Z,19.62
2018-06-03T08:57:44.517Z,19.76
2018-06-03T08:58:44.593Z,19.69
2018-06-03T08:59:44.520Z,19.63
2018-06-03T09:00:44.488Z,19.77
2018-06-03T09:01:44.521Z,19.81
2018-06-03T09:02:44.488Z,19.74
2018-06-03T09:03:44.489Z,19.78
2018-06-03T09:04:44.471Z,19.78
2018-06-03T09:05:44.467Z,19.84
2018-06-03T09:06:44.517Z,19.74
2018-06-03T09:07:44.450Z,19.83
2018-06-03T09:08:44.446Z,19.77
2018-06-03T09:09:44.448Z,19.83
2018-06-03T09:10:44.449Z,19.80
2018-06-03T09:11:46.390Z,19.84
2018-06-03T09:12:44.463Z,19.87
2018-06-03T09:13:44.410Z,19.86
2018-06-03T09:14:44.467Z,19.87
2018-06-03T09:15:44.415Z,19.92
2018-06-03T09:16:44.399Z,19.95
2018-06-03T09:17:44.686Z,19.91
2018-06-03T09:18:44.391Z,20.05
2018-06-03T09:19:44.412Z,20.01
2018-06-03T09:20:44.387Z,20.01
2018-06-03T09:21:44.358Z,19.96
2018-06-03T09:22:44.360Z,20.13
2018-06-03T09:24:44.402Z,20.10
2018-06-03T09:25:44.332Z,20.05
2018-06-03T09:26:44.328Z,20.17
2018-06-03T09:27:44.341Z,20.18
2018-06-03T09:28:44.324Z,20.23
2018-06-03T09:29:44.322Z,20.13
2018-06-03T09:30:44.320Z,20.29
2018-06-03T09:31:44.439Z,20.35
2018-06-03T09:32:44.312Z,20.24
2018-06-03T09:33:44.304Z,20.33
2018-06-03T09:34:44.366Z,20.36
2018-06-03T09:35:44.291Z,20.42
2018-06-03T09:36:44.319Z,20.29
2018-06-03T09:37:44.284Z,20.41
2018-06-03T09:38:44.268Z,20.29
2018-06-03T09:39:44.272Z,20.32
2018-06-03T09:40:44.267Z,20.24
2018-06-03T09:41:44.293Z,20.33
2018-06-03T09:42:44.264Z,20.42
2018-06-03T09:43:44.255Z,20.36
2018-06-03T09:44:44.247Z,20.35
2018-06-03T09:45:44.243Z,20.52
2018-06-03T09:46:44.288Z,20.38
2018-06-03T09:47:44.232Z,20.42
2018-06-03T09:48:44.230Z,20.33
2018-06-03T09:49:44.238Z,20.43
2018-06-03T09:50:44.236Z,20.36
2018-06-03T09:51:44.210Z,20.48
2018-06-03T09:52:44.218Z,20.55
2018-06-03T09:53:44.215Z,20.62
2018-06-03T09:54:44.236Z,20.77
2018-06-03T09:55:44.204Z,20.89
2018-06-03T09:56:44.228Z,20.85
2018-06-03T09:57:44.196Z,20.69
2018-06-03T09:58:44.189Z,20.72
2018-06-03T09:59:44.186Z,20.85
2018-06-03T10:00:44.189Z,20.97
2018-06-03T10:01:44.312Z,20.97
2018-06-03T10:02:44.182Z,20.98
2018-06-03T10:03:44.183Z,21.19
2018-06-03T10:04:44.174Z,21.31
2018-06-03T10:05:44.175Z,21.40
2018-06-03T10:06:44.169Z,21.44
2018-06-03T10:07:44.201Z,21.49
2018-06-03T10:08:44.163Z,21.43
2018-06-03T10:09:44.170Z,21.43
2018-06-03T10:10:44.165Z,21.49
2018-06-03T10:11:44.162Z,21.59
2018-06-03T10:12:44.314Z,21.75
2018-06-03T10:13:44.161Z,21.75
2018-06-03T10:14:44.162Z,21.83
2018-06-03T10:15:44.143Z,22.09
2018-06-03T10:16:44.148Z,21.98
2018-06-03T10:17:44.142Z,22.03
2018-06-03T10:18:44.158Z,21.79
2018-06-03T10:19:44.143Z,21.69
2018-06-03T10:20:44.154Z,21.54
2018-06-03T10:21:44.150Z,21.54
2018-06-03T10:22:44.190Z,21.52
2018-06-03T10:23:44.204Z,21.50
2018-06-03T10:24:44.156Z,21.46
2018-06-03T10:25:44.145Z,21.53
2018-06-03T10:26:44.139Z,21.53
2018-06-03T10:27:44.148Z,21.61
2018-06-03T10:28:44.151Z,21.74
2018-06-03T10:29:44.145Z,21.91
2018-06-03T10:30:44.142Z,21.99
2018-06-03T10:31:44.145Z,22.09
2018-06-03T10:32:44.144Z,22.24
2018-06-03T10:33:44.186Z,22.43
2018-06-03T10:34:44.141Z,22.67
2018-06-03T10:35:44.140Z,22.76
2018-06-03T10:36:44.135Z,22.82
2018-06-03T10:37:44.147Z,22.70
2018-06-03T10:38:44.139Z,22.65
2018-06-03T10:39:44.172Z,22.75
2018-06-03T10:40:44.145Z,22.73
2018-06-03T10:41:44.133Z,22.65
2018-06-03T10:42:44.143Z,22.52
2018-06-03T10:43:44.148Z,22.47
2018-06-03T10:44:44.201Z,22.62
2018-06-03T10:45:44.148Z,22.65
2018-06-03T10:46:44.139Z,22.58
2018-06-03T10:47:44.149Z,22.49
2018-06-03T10:48:44.585Z,22.70
2018-06-03T10:49:44.149Z,22.67
2018-06-03T10:50:44.150Z,22.68
2018-06-03T10:51:44.148Z,22.70
2018-06-03T10:52:44.155Z,22.67
2018-06-03T10:53:44.156Z,22.83
2018-06-03T10:54:44.174Z,22.73
2018-06-03T10:55:44.146Z,22.70
2018-06-03T10:56:44.156Z,22.62
2018-06-03T10:57:44.146Z,22.75
2018-06-03T10:58:44.160Z,22.72
2018-06-03T10:59:44.165Z,22.75
2018-06-03T11:00:44.162Z,22.77
2018-06-03T11:01:44.156Z,22.73
2018-06-03T11:02:44.167Z,22.79
2018-06-03T11:03:44.168Z,23.04
2018-06-03T11:04:44.167Z,23.23
2018-06-03T11:05:44.171Z,23.61
2018-06-03T11:06:44.944Z,23.87
2018-06-03T11:07:44.209Z,24.03
2018-06-03T11:08:44.175Z,24.13
2018-06-03T11:09:44.211Z,24.02
2018-06-03T11:10:44.186Z,23.95
2018-06-03T11:11:44.173Z,24.00
2018-06-03T11:12:44.177Z,24.21
2018-06-03T11:13:44.199Z,24.27
2018-06-03T11:14:44.224Z,24.28
2018-06-03T11:15:44.203Z,24.28
2018-06-03T11:16:44.251Z,24.30
2018-06-03T11:17:44.218Z,24.43
2018-06-03T11:18:44.552Z,24.68
2018-06-03T11:19:44.348Z,24.95
2018-06-03T11:20:44.207Z,24.95
2018-06-03T11:21:44.228Z,24.67
2018-06-03T11:22:44.230Z,24.55
2018-06-03T11:23:44.223Z,24.52
2018-06-03T11:24:44.499Z,24.52
2018-06-03T11:25:44.246Z,24.52
2018-06-03T11:26:44.240Z,24.67
2018-06-03T11:27:44.241Z,24.96
2018-06-03T11:28:44.261Z,24.90
2018-06-03T11:29:44.262Z,24.76
2018-06-03T11:30:44.334Z,24.67
2018-06-03T11:31:44.275Z,24.58
2018-06-03T11:32:44.271Z,24.46
2018-06-03T11:33:44.279Z,24.64
2018-06-03T11:34:44.282Z,25.00
2018-06-03T11:35:44.277Z,25.14
2018-06-03T11:36:44.321Z,25.13
2018-06-03T11:37:44.292Z,24.98
2018-06-03T11:38:44.295Z,24.96
2018-06-03T11:39:44.307Z,25.00
2018-06-03T11:40:44.318Z,24.98
2018-06-03T11:41:44.519Z,24.96
2018-06-03T11:42:44.331Z,25.10
2018-06-03T11:43:44.338Z,25.02
2018-06-03T11:44:44.331Z,24.95
2018-06-03T11:45:44.341Z,24.81
2018-06-03T11:46:44.374Z,24.67
2018-06-03T11:47:44.534Z,24.60
2018-06-03T11:48:44.701Z,24.58
2018-06-03T11:49:44.348Z,24.35
2018-06-03T11:50:44.370Z,24.22
2018-06-03T11:51:44.354Z,24.05
2018-06-03T11:52:44.358Z,24.08
2018-06-03T11:53:44.369Z,23.98
2018-06-03T11:54:44.380Z,23.85
2018-06-03T11:55:44.512Z,23.76
2018-06-03T11:56:44.370Z,23.65
2018-06-03T11:57:44.368Z,23.57
2018-06-03T11:58:44.377Z,23.43
2018-06-03T11:59:44.381Z,23.13
2018-06-03T12:00:44.404Z,23.09
2018-06-03T12:01:44.408Z,23.05
2018-06-03T12:02:44.375Z,23.13
2018-06-03T12:03:44.376Z,23.05
2018-06-03T12:04:44.369Z,23.05
2018-06-03T12:05:44.529Z,22.88
2018-06-03T12:06:44.373Z,22.80
2018-06-03T12:07:44.374Z,22.61
2018-06-03T12:08:44.365Z,22.61
2018-06-03T12:09:44.365Z,22.68
2018-06-03T12:10:44.367Z,22.61
2018-06-03T12:11:44.390Z,22.75
2018-06-03T12:12:44.367Z,22.90
2018-06-03T12:13:44.369Z,23.00
2018-06-03T12:14:44.349Z,23.09
2018-06-03T12:15:44.390Z,23.05
2018-06-03T12:16:44.389Z,23.02
2018-06-03T12:17:44.389Z,23.13
2018-06-03T12:18:44.347Z,23.16
2018-06-03T12:19:44.349Z,23.07
2018-06-03T12:20:44.344Z,23.02
2018-06-03T12:21:44.369Z,23.00
2018-06-03T12:22:44.331Z,22.91
2018-06-03T12:23:44.330Z,22.92
2018-06-03T12:24:44.336Z,22.86
2018-06-03T12:25:44.322Z,22.75
2018-06-03T12:26:44.364Z,22.68
2018-06-03T12:27:44.410Z,22.70
2018-06-03T12:28:44.397Z,22.70
2018-06-03T12:29:44.321Z,22.65
2018-06-03T12:30:44.321Z,22.73
2018-06-03T12:31:44.320Z,22.65
2018-06-03T12:32:44.314Z,22.61
2018-06-03T12:33:44.342Z,22.58
2018-06-03T12:34:44.310Z,22.54
2018-06-03T12:35:44.300Z,22.47
2018-06-03T12:36:44.289Z,22.39
2018-06-03T12:37:44.345Z,22.36
2018-06-03T12:38:44.293Z,22.37
2018-06-03T12:39:44.285Z,22.33
2018-06-03T12:40:44.327Z,22.43
2018-06-03T12:41:44.304Z,22.40
2018-06-03T12:42:44.280Z,22.51
2018-06-03T12:43:44.273Z,22.64
2018-06-03T12:44:44.281Z,22.57
2018-06-03T12:45:44.261Z,22.61
2018-06-03T12:46:44.301Z,22.70
2018-06-03T12:47:44.256Z,22.65
2018-06-03T12:48:44.260Z,22.68
2018-06-03T12:49:44.260Z,22.70
2018-06-03T12:50:44.266Z,22.62
2018-06-03T12:51:44.265Z,22.49
2018-06-03T12:52:44.271Z,22.43
2018-06-03T12:53:44.250Z,22.39
2018-06-03T12:54:44.263Z,22.40
2018-06-03T12:55:44.239Z,22.40
2018-06-03T12:56:44.245Z,22.28
2018-06-03T12:57:44.245Z,22.52
2018-06-03T12:58:44.228Z,22.52
2018-06-03T12:59:44.366Z,22.51
2018-06-03T13:00:44.219Z,22.46
2018-06-03T13:01:44.220Z,22.45
2018-06-03T13:02:44.216Z,22.25
2018-06-03T13:03:44.206Z,22.12
2018-06-03T13:04:44.208Z,22.05
2018-06-03T13:05:44.232Z,22.03
2018-06-03T13:06:44.197Z,22.09
2018-06-03T13:07:44.229Z,22.15
2018-06-03T13:08:44.215Z,22.21
2018-06-03T13:09:44.190Z,22.27
2018-06-03T13:10:44.189Z,22.42
2018-06-03T13:11:44.189Z,22.46
2018-06-03T13:12:44.216Z,22.51
2018-06-03T13:13:44.178Z,22.46
2018-06-03T13:14:44.177Z,22.49
2018-06-03T13:15:44.166Z,22.51
2018-06-03T13:16:44.182Z,22.47
2018-06-03T13:17:44.159Z,22.47
2018-06-03T13:18:44.191Z,22.40
2018-06-03T13:19:44.146Z,22.36
2018-06-03T13:20:44.150Z,22.30
2018-06-03T13:21:44.148Z,22.15
2018-06-03T13:22:44.141Z,22.09
2018-06-03T13:23:44.166Z,22.02
2018-06-03T13:24:44.134Z,22.02
2018-06-03T13:25:44.130Z,22.00
2018-06-03T13:26:44.127Z,22.05
2018-06-03T13:27:44.116Z,22.15
2018-06-03T13:28:44.137Z,22.10
2018-06-03T13:29:44.113Z,22.06
2018-06-03T13:30:44.105Z,22.05
2018-06-03T13:31:44.106Z,22.12
2018-06-03T13:32:44.089Z,22.09
2018-06-03T13:33:44.135Z,22.12
2018-06-03T13:34:44.089Z,22.10
2018-06-03T13:35:44.087Z,22.12
2018-06-03T13:36:44.090Z,22.09
2018-06-03T13:37:44.077Z,22.12
2018-06-03T13:38:44.112Z,22.05
2018-06-03T13:39:44.069Z,22.03
2018-06-03T13:40:44.066Z,22.18
2018-06-03T13:41:44.049Z,22.21
2018-06-03T13:42:44.054Z,22.20
2018-06-03T13:43:44.077Z,22.25
2018-06-03T13:44:44.065Z,22.28
2018-06-03T13:45:44.050Z,22.30
2018-06-03T13:46:44.031Z,22.35
2018-06-03T13:47:44.041Z,22.42
2018-06-03T13:48:44.036Z,22.40
2018-06-03T13:49:44.038Z,22.51
2018-06-03T13:50:44.088Z,22.58
2018-06-03T13:51:44.016Z,22.57
2018-06-03T13:52:44.019Z,22.65
2018-06-03T13:53:44.011Z,22.72
2018-06-03T13:54:44.000Z,22.72